메인 페이지
METAR-TAF:

METAR-TAF

공항 :

푸자이라, 아랍에미리트

위도: 25-06N, 경도: 056-20E, 고도: 28m

현재 날씨관측

예보는 13분 전, 09:00시(UTC)에 발표되었습니다.
동북동10kt
온도 38°C
습도 45%
기압 1001 hPa
시정: 5000m
연무

METAR: OMFJ 040900Z 06010KT 5000 HZ NSC 38/24 Q1001 A2957

시각: 13:13 (09:13 UTC)

예보

예보는 4 시간 13분 전, 05:00시(UTC)에 발표되었습니다.
예보 대상 시간: 04일 06시부터 05일 12시까지 (UTC)
8kt
시정: 7000m
전환 중
04일 14시부터 04일 16시까지 (UTC)
여러 방향의 바람 3kt
일시적
04일 20시부터 05일 03시까지 (UTC)
서북서5kt
시정: 5000m
연무

TAF: OMFJ 040500Z 0406/0512 09008KT 7000 NSC BECMG 0414/0416 VRB03KT TEMPO 0420/0503 29005KT 5000 HZ

4,000개 이상의 공항 관측 자료 및 예보 (METAR 및 TAF 보고).

지도상에서 검색 가능한 기상관측소가 노란 점과 빨간 점으로 표시되어 있습니다.

기상관측소 명을 보려면 표시 위로 마우스를 이동하세요.

날씨 관측과 예보를 보려면 클릭하세요.

지도 변경 : 확대하려면 엑스 표시가 있는 녹색 버튼, 축소하려면 빼기 표시가 있는 녹색 버튼, 다음 페이지의 지도를 보려면 녹색 화살표를 클릭하세요.


METAR-TAF: